sensor_id;sensor_type;location;lat;lon;timestamp;P1;durP1;ratioP1;P2;durP2;ratioP2
29814;SDS011;16708;50.426;7.664;2022-07-06T00:01:06;4.20;;;1.50;;
29814;SDS011;16708;50.426;7.664;2022-07-06T00:06:03;2.90;;;1.30;;
29814;SDS011;16708;50.426;7.664;2022-07-06T00:10:55;5.30;;;1.60;;
29814;SDS011;16708;50.426;7.664;2022-07-06T00:15:49;3.30;;;1.40;;
29814;SDS011;16708;50.426;7.664;2022-07-06T00:20:44;3.20;;;1.20;;
29814;SDS011;16708;50.426;7.664;2022-07-06T00:25:39;2.80;;;1.30;;
29814;SDS011;16708;50.426;7.664;2022-07-06T00:30:34;2.50;;;1.50;;
29814;SDS011;16708;50.426;7.664;2022-07-06T00:35:28;3.90;;;1.50;;
29814;SDS011;16708;50.426;7.664;2022-07-06T00:40:23;5.50;;;1.40;;
29814;SDS011;16708;50.426;7.664;2022-07-06T00:45:18;2.40;;;1.30;;
29814;SDS011;16708;50.426;7.664;2022-07-06T00:50:12;2.30;;;1.30;;
29814;SDS011;16708;50.426;7.664;2022-07-06T00:55:06;4.20;;;1.60;;
29814;SDS011;16708;50.426;7.664;2022-07-06T01:00:01;5.10;;;1.80;;
29814;SDS011;16708;50.426;7.664;2022-07-06T01:04:55;3.40;;;1.40;;
29814;SDS011;16708;50.426;7.664;2022-07-06T01:09:50;6.00;;;1.60;;
29814;SDS011;16708;50.426;7.664;2022-07-06T01:14:45;4.50;;;1.50;;
29814;SDS011;16708;50.426;7.664;2022-07-06T01:24:34;2.80;;;1.50;;
29814;SDS011;16708;50.426;7.664;2022-07-06T01:29:28;3.40;;;1.70;;
29814;SDS011;16708;50.426;7.664;2022-07-06T01:34:23;4.90;;;2.10;;
29814;SDS011;16708;50.426;7.664;2022-07-06T01:39:18;5.90;;;2.00;;
29814;SDS011;16708;50.426;7.664;2022-07-06T01:44:11;5.60;;;2.00;;
29814;SDS011;16708;50.426;7.664;2022-07-06T01:49:06;3.10;;;1.80;;
29814;SDS011;16708;50.426;7.664;2022-07-06T01:54:00;7.00;;;2.00;;
29814;SDS011;16708;50.426;7.664;2022-07-06T01:58:55;5.50;;;1.70;;
29814;SDS011;16708;50.426;7.664;2022-07-06T02:03:50;5.70;;;1.90;;
29814;SDS011;16708;50.426;7.664;2022-07-06T02:08:44;3.70;;;1.90;;
29814;SDS011;16708;50.426;7.664;2022-07-06T02:13:39;6.30;;;1.90;;
29814;SDS011;16708;50.426;7.664;2022-07-06T02:18:33;5.30;;;1.80;;
29814;SDS011;16708;50.426;7.664;2022-07-06T02:23:28;5.90;;;2.40;;
29814;SDS011;16708;50.426;7.664;2022-07-06T02:28:23;3.00;;;1.90;;
29814;SDS011;16708;50.426;7.664;2022-07-06T02:33:17;5.00;;;2.10;;
29814;SDS011;16708;50.426;7.664;2022-07-06T02:38:12;4.50;;;2.20;;
29814;SDS011;16708;50.426;7.664;2022-07-06T02:43:07;7.60;;;2.40;;
29814;SDS011;16708;50.426;7.664;2022-07-06T02:48:01;5.60;;;2.50;;
29814;SDS011;16708;50.426;7.664;2022-07-06T02:52:56;7.00;;;2.40;;
29814;SDS011;16708;50.426;7.664;2022-07-06T02:57:50;8.50;;;2.40;;
29814;SDS011;16708;50.426;7.664;2022-07-06T03:02:45;6.00;;;2.40;;
29814;SDS011;16708;50.426;7.664;2022-07-06T03:07:39;5.30;;;2.20;;
29814;SDS011;16708;50.426;7.664;2022-07-06T03:12:34;6.70;;;2.40;;
29814;SDS011;16708;50.426;7.664;2022-07-06T03:17:30;4.10;;;2.10;;
29814;SDS011;16708;50.426;7.664;2022-07-06T03:22:23;5.60;;;2.30;;
29814;SDS011;16708;50.426;7.664;2022-07-06T03:27:18;6.30;;;2.50;;
29814;SDS011;16708;50.426;7.664;2022-07-06T03:32:12;5.80;;;2.40;;
29814;SDS011;16708;50.426;7.664;2022-07-06T03:37:06;3.90;;;2.30;;
29814;SDS011;16708;50.426;7.664;2022-07-06T03:42:00;3.90;;;2.10;;
29814;SDS011;16708;50.426;7.664;2022-07-06T03:46:54;6.20;;;2.20;;
29814;SDS011;16708;50.426;7.664;2022-07-06T03:51:49;6.00;;;2.30;;
29814;SDS011;16708;50.426;7.664;2022-07-06T03:56:43;5.10;;;2.40;;
29814;SDS011;16708;50.426;7.664;2022-07-06T04:01:38;3.80;;;1.90;;
29814;SDS011;16708;50.426;7.664;2022-07-06T04:06:33;8.30;;;3.30;;
29814;SDS011;16708;50.426;7.664;2022-07-06T04:11:27;5.80;;;2.60;;
29814;SDS011;16708;50.426;7.664;2022-07-06T04:16:22;5.80;;;2.40;;
29814;SDS011;16708;50.426;7.664;2022-07-06T04:21:17;6.80;;;2.80;;
29814;SDS011;16708;50.426;7.664;2022-07-06T04:26:11;5.20;;;2.90;;
29814;SDS011;16708;50.426;7.664;2022-07-06T04:31:08;5.80;;;2.70;;
29814;SDS011;16708;50.426;7.664;2022-07-06T04:36:01;6.90;;;3.10;;
29814;SDS011;16708;50.426;7.664;2022-07-06T04:40:58;6.00;;;3.20;;
29814;SDS011;16708;50.426;7.664;2022-07-06T04:45:51;5.80;;;3.00;;
29814;SDS011;16708;50.426;7.664;2022-07-06T04:50:45;6.10;;;2.80;;
29814;SDS011;16708;50.426;7.664;2022-07-06T04:55:40;11.30;;;2.90;;
29814;SDS011;16708;50.426;7.664;2022-07-06T05:00:34;4.70;;;2.60;;
29814;SDS011;16708;50.426;7.664;2022-07-06T05:05:29;6.40;;;2.90;;
29814;SDS011;16708;50.426;7.664;2022-07-06T05:10:24;8.40;;;2.80;;
29814;SDS011;16708;50.426;7.664;2022-07-06T05:15:18;4.10;;;2.60;;
29814;SDS011;16708;50.426;7.664;2022-07-06T05:20:11;5.50;;;2.60;;
29814;SDS011;16708;50.426;7.664;2022-07-06T05:25:06;6.70;;;2.60;;
29814;SDS011;16708;50.426;7.664;2022-07-06T05:30:01;6.40;;;2.70;;
29814;SDS011;16708;50.426;7.664;2022-07-06T05:34:56;7.70;;;3.30;;
29814;SDS011;16708;50.426;7.664;2022-07-06T05:39:50;9.20;;;2.90;;
29814;SDS011;16708;50.426;7.664;2022-07-06T05:44:45;7.20;;;2.80;;
29814;SDS011;16708;50.426;7.664;2022-07-06T05:49:39;5.70;;;3.30;;
29814;SDS011;16708;50.426;7.664;2022-07-06T05:54:34;8.00;;;2.70;;
29814;SDS011;16708;50.426;7.664;2022-07-06T05:59:29;4.90;;;2.20;;
29814;SDS011;16708;50.426;7.664;2022-07-06T06:04:24;6.60;;;2.70;;
29814;SDS011;16708;50.426;7.664;2022-07-06T06:09:18;5.80;;;2.40;;
29814;SDS011;16708;50.426;7.664;2022-07-06T06:14:13;8.30;;;2.40;;
29814;SDS011;16708;50.426;7.664;2022-07-06T06:19:08;7.20;;;2.30;;
29814;SDS011;16708;50.426;7.664;2022-07-06T06:24:03;7.50;;;2.60;;
29814;SDS011;16708;50.426;7.664;2022-07-06T06:28:58;8.60;;;2.70;;
29814;SDS011;16708;50.426;7.664;2022-07-06T06:33:52;5.20;;;2.80;;
29814;SDS011;16708;50.426;7.664;2022-07-06T06:38:47;15.10;;;3.40;;
29814;SDS011;16708;50.426;7.664;2022-07-06T06:43:43;7.20;;;2.60;;
29814;SDS011;16708;50.426;7.664;2022-07-06T06:48:37;5.80;;;2.40;;
29814;SDS011;16708;50.426;7.664;2022-07-06T06:53:32;5.70;;;2.50;;
29814;SDS011;16708;50.426;7.664;2022-07-06T06:58:27;9.90;;;2.40;;
29814;SDS011;16708;50.426;7.664;2022-07-06T07:03:24;6.00;;;2.30;;
29814;SDS011;16708;50.426;7.664;2022-07-06T07:08:16;5.20;;;2.20;;
29814;SDS011;16708;50.426;7.664;2022-07-06T07:13:12;5.80;;;2.50;;
29814;SDS011;16708;50.426;7.664;2022-07-06T07:18:04;11.60;;;3.00;;
29814;SDS011;16708;50.426;7.664;2022-07-06T07:22:59;4.50;;;2.20;;
29814;SDS011;16708;50.426;7.664;2022-07-06T07:27:54;14.10;;;3.10;;
29814;SDS011;16708;50.426;7.664;2022-07-06T07:32:48;8.60;;;2.30;;
29814;SDS011;16708;50.426;7.664;2022-07-06T07:37:44;4.50;;;2.00;;
29814;SDS011;16708;50.426;7.664;2022-07-06T07:42:38;5.10;;;2.00;;
29814;SDS011;16708;50.426;7.664;2022-07-06T07:47:33;7.50;;;2.00;;
29814;SDS011;16708;50.426;7.664;2022-07-06T07:52:28;11.50;;;2.20;;
29814;SDS011;16708;50.426;7.664;2022-07-06T07:57:23;56.80;;;5.90;;
29814;SDS011;16708;50.426;7.664;2022-07-06T08:02:17;7.40;;;2.00;;
29814;SDS011;16708;50.426;7.664;2022-07-06T08:07:12;7.40;;;2.20;;
29814;SDS011;16708;50.426;7.664;2022-07-06T08:12:06;6.50;;;1.70;;
29814;SDS011;16708;50.426;7.664;2022-07-06T08:17:01;5.70;;;1.50;;
29814;SDS011;16708;50.426;7.664;2022-07-06T08:21:55;6.30;;;1.40;;
29814;SDS011;16708;50.426;7.664;2022-07-06T08:26:50;7.60;;;1.70;;
29814;SDS011;16708;50.426;7.664;2022-07-06T08:31:44;5.90;;;1.70;;
29814;SDS011;16708;50.426;7.664;2022-07-06T08:36:39;5.70;;;1.60;;
29814;SDS011;16708;50.426;7.664;2022-07-06T08:41:34;4.70;;;1.60;;
29814;SDS011;16708;50.426;7.664;2022-07-06T08:46:29;5.30;;;1.70;;
29814;SDS011;16708;50.426;7.664;2022-07-06T08:51:24;4.60;;;1.70;;
29814;SDS011;16708;50.426;7.664;2022-07-06T08:56:19;4.40;;;1.50;;
29814;SDS011;16708;50.426;7.664;2022-07-06T09:01:12;2.20;;;1.40;;
29814;SDS011;16708;50.426;7.664;2022-07-06T09:06:05;3.50;;;1.30;;
29814;SDS011;16708;50.426;7.664;2022-07-06T09:10:59;2.60;;;1.00;;
29814;SDS011;16708;50.426;7.664;2022-07-06T09:15:54;8.10;;;1.50;;
29814;SDS011;16708;50.426;7.664;2022-07-06T09:20:48;10.80;;;1.60;;
29814;SDS011;16708;50.426;7.664;2022-07-06T09:25:43;2.60;;;1.20;;
29814;SDS011;16708;50.426;7.664;2022-07-06T09:30:38;4.00;;;1.10;;
29814;SDS011;16708;50.426;7.664;2022-07-06T09:35:33;3.40;;;1.10;;
29814;SDS011;16708;50.426;7.664;2022-07-06T09:40:27;4.20;;;1.30;;
29814;SDS011;16708;50.426;7.664;2022-07-06T09:45:21;3.50;;;1.10;;
29814;SDS011;16708;50.426;7.664;2022-07-06T09:55:12;3.50;;;1.20;;
29814;SDS011;16708;50.426;7.664;2022-07-06T10:00:06;3.40;;;1.20;;
29814;SDS011;16708;50.426;7.664;2022-07-06T10:05:00;2.30;;;1.10;;
29814;SDS011;16708;50.426;7.664;2022-07-06T10:09:56;2.80;;;1.10;;
29814;SDS011;16708;50.426;7.664;2022-07-06T10:14:53;3.70;;;1.10;;
29814;SDS011;16708;50.426;7.664;2022-07-06T10:19:48;2.00;;;0.90;;
29814;SDS011;16708;50.426;7.664;2022-07-06T10:24:43;3.80;;;0.90;;
29814;SDS011;16708;50.426;7.664;2022-07-06T10:29:36;4.80;;;1.20;;
29814;SDS011;16708;50.426;7.664;2022-07-06T10:34:29;3.80;;;1.30;;
29814;SDS011;16708;50.426;7.664;2022-07-06T10:39:23;4.10;;;0.90;;
29814;SDS011;16708;50.426;7.664;2022-07-06T10:44:17;3.40;;;1.00;;
29814;SDS011;16708;50.426;7.664;2022-07-06T10:49:12;6.70;;;1.00;;
29814;SDS011;16708;50.426;7.664;2022-07-06T10:54:08;3.20;;;1.00;;
29814;SDS011;16708;50.426;7.664;2022-07-06T10:59:04;2.10;;;0.80;;
29814;SDS011;16708;50.426;7.664;2022-07-06T11:03:59;2.70;;;0.80;;
29814;SDS011;16708;50.426;7.664;2022-07-06T11:08:53;4.10;;;1.00;;
29814;SDS011;16708;50.426;7.664;2022-07-06T11:13:49;2.60;;;1.10;;
29814;SDS011;16708;50.426;7.664;2022-07-06T11:23:42;3.80;;;1.20;;
29814;SDS011;16708;50.426;7.664;2022-07-06T11:28:36;3.00;;;1.40;;
29814;SDS011;16708;50.426;7.664;2022-07-06T11:33:30;4.20;;;1.60;;
29814;SDS011;16708;50.426;7.664;2022-07-06T11:43:17;3.80;;;1.70;;
29814;SDS011;16708;50.426;7.664;2022-07-06T11:48:11;9.00;;;2.40;;
29814;SDS011;16708;50.426;7.664;2022-07-06T11:53:05;5.70;;;2.30;;
29814;SDS011;16708;50.426;7.664;2022-07-06T11:58:01;2.90;;;2.10;;
29814;SDS011;16708;50.426;7.664;2022-07-06T12:02:54;4.90;;;2.10;;
29814;SDS011;16708;50.426;7.664;2022-07-06T12:07:49;5.50;;;2.10;;
29814;SDS011;16708;50.426;7.664;2022-07-06T12:12:44;4.50;;;2.30;;
29814;SDS011;16708;50.426;7.664;2022-07-06T12:17:39;4.00;;;2.20;;
29814;SDS011;16708;50.426;7.664;2022-07-06T12:22:35;3.20;;;2.00;;
29814;SDS011;16708;50.426;7.664;2022-07-06T12:32:26;5.10;;;2.00;;
29814;SDS011;16708;50.426;7.664;2022-07-06T12:37:23;2.90;;;2.20;;
29814;SDS011;16708;50.426;7.664;2022-07-06T12:42:19;5.70;;;2.00;;
29814;SDS011;16708;50.426;7.664;2022-07-06T12:52:05;7.80;;;2.60;;
29814;SDS011;16708;50.426;7.664;2022-07-06T12:56:59;4.20;;;2.80;;
29814;SDS011;16708;50.426;7.664;2022-07-06T13:01:54;4.60;;;2.40;;
29814;SDS011;16708;50.426;7.664;2022-07-06T13:06:49;4.20;;;2.60;;
29814;SDS011;16708;50.426;7.664;2022-07-06T13:11:44;3.40;;;2.10;;
29814;SDS011;16708;50.426;7.664;2022-07-06T13:16:39;2.80;;;2.30;;
29814;SDS011;16708;50.426;7.664;2022-07-06T13:21:33;2.80;;;1.80;;
29814;SDS011;16708;50.426;7.664;2022-07-06T13:26:27;5.30;;;1.80;;
29814;SDS011;16708;50.426;7.664;2022-07-06T13:31:21;2.70;;;1.70;;
29814;SDS011;16708;50.426;7.664;2022-07-06T13:36:16;3.60;;;1.50;;
29814;SDS011;16708;50.426;7.664;2022-07-06T13:41:13;4.80;;;1.80;;
29814;SDS011;16708;50.426;7.664;2022-07-06T13:46:05;4.80;;;1.60;;
29814;SDS011;16708;50.426;7.664;2022-07-06T13:51:00;1.70;;;1.40;;
29814;SDS011;16708;50.426;7.664;2022-07-06T13:55:54;2.90;;;1.60;;
29814;SDS011;16708;50.426;7.664;2022-07-06T14:00:47;3.90;;;1.40;;
29814;SDS011;16708;50.426;7.664;2022-07-06T14:05:42;4.40;;;1.50;;
29814;SDS011;16708;50.426;7.664;2022-07-06T14:10:37;2.50;;;1.30;;
29814;SDS011;16708;50.426;7.664;2022-07-06T14:15:31;2.70;;;1.50;;
29814;SDS011;16708;50.426;7.664;2022-07-06T14:20:27;3.70;;;1.60;;
29814;SDS011;16708;50.426;7.664;2022-07-06T14:25:21;3.30;;;1.40;;
29814;SDS011;16708;50.426;7.664;2022-07-06T14:30:16;3.80;;;1.30;;
29814;SDS011;16708;50.426;7.664;2022-07-06T14:35:11;2.20;;;1.20;;
29814;SDS011;16708;50.426;7.664;2022-07-06T14:40:06;1.60;;;1.10;;
29814;SDS011;16708;50.426;7.664;2022-07-06T14:45:01;2.90;;;1.30;;
29814;SDS011;16708;50.426;7.664;2022-07-06T14:49:57;2.40;;;1.30;;
29814;SDS011;16708;50.426;7.664;2022-07-06T14:54:52;2.40;;;1.20;;
29814;SDS011;16708;50.426;7.664;2022-07-06T14:59:47;3.40;;;1.30;;
29814;SDS011;16708;50.426;7.664;2022-07-06T15:04:42;2.30;;;1.40;;
29814;SDS011;16708;50.426;7.664;2022-07-06T15:09:36;3.40;;;1.20;;
29814;SDS011;16708;50.426;7.664;2022-07-06T15:14:31;2.50;;;1.20;;
29814;SDS011;16708;50.426;7.664;2022-07-06T15:19:27;2.80;;;1.50;;
29814;SDS011;16708;50.426;7.664;2022-07-06T15:24:22;2.60;;;1.20;;
29814;SDS011;16708;50.426;7.664;2022-07-06T15:29:16;2.30;;;1.20;;
29814;SDS011;16708;50.426;7.664;2022-07-06T15:34:10;2.80;;;1.20;;
29814;SDS011;16708;50.426;7.664;2022-07-06T15:39:04;3.10;;;1.20;;
29814;SDS011;16708;50.426;7.664;2022-07-06T15:43:59;5.90;;;1.20;;
29814;SDS011;16708;50.426;7.664;2022-07-06T15:48:55;2.30;;;1.10;;
29814;SDS011;16708;50.426;7.664;2022-07-06T15:53:50;1.90;;;1.30;;
29814;SDS011;16708;50.426;7.664;2022-07-06T15:58:45;3.00;;;1.30;;
29814;SDS011;16708;50.426;7.664;2022-07-06T16:03:39;3.80;;;1.40;;
29814;SDS011;16708;50.426;7.664;2022-07-06T16:08:35;1.80;;;1.20;;
29814;SDS011;16708;50.426;7.664;2022-07-06T16:13:30;3.00;;;1.40;;
29814;SDS011;16708;50.426;7.664;2022-07-06T16:18:25;2.80;;;1.30;;
29814;SDS011;16708;50.426;7.664;2022-07-06T16:23:22;3.20;;;1.40;;
29814;SDS011;16708;50.426;7.664;2022-07-06T16:28:16;2.30;;;1.20;;
29814;SDS011;16708;50.426;7.664;2022-07-06T16:33:10;2.90;;;1.00;;
29814;SDS011;16708;50.426;7.664;2022-07-06T16:38:04;3.20;;;1.20;;
29814;SDS011;16708;50.426;7.664;2022-07-06T16:42:59;3.20;;;1.10;;
29814;SDS011;16708;50.426;7.664;2022-07-06T16:47:54;3.70;;;1.20;;
29814;SDS011;16708;50.426;7.664;2022-07-06T16:52:48;3.70;;;1.20;;
29814;SDS011;16708;50.426;7.664;2022-07-06T16:57:43;4.80;;;1.20;;
29814;SDS011;16708;50.426;7.664;2022-07-06T17:02:38;1.90;;;1.10;;
29814;SDS011;16708;50.426;7.664;2022-07-06T17:07:32;2.20;;;0.90;;
29814;SDS011;16708;50.426;7.664;2022-07-06T17:12:27;2.80;;;1.10;;
29814;SDS011;16708;50.426;7.664;2022-07-06T17:17:23;1.50;;;0.90;;
29814;SDS011;16708;50.426;7.664;2022-07-06T17:22:17;3.90;;;1.20;;
29814;SDS011;16708;50.426;7.664;2022-07-06T17:27:13;3.00;;;1.00;;
29814;SDS011;16708;50.426;7.664;2022-07-06T17:32:06;2.70;;;1.20;;
29814;SDS011;16708;50.426;7.664;2022-07-06T17:37:01;2.30;;;0.90;;
29814;SDS011;16708;50.426;7.664;2022-07-06T17:41:56;5.10;;;1.30;;
29814;SDS011;16708;50.426;7.664;2022-07-06T17:46:50;1.90;;;1.00;;
29814;SDS011;16708;50.426;7.664;2022-07-06T17:51:44;2.40;;;1.10;;
29814;SDS011;16708;50.426;7.664;2022-07-06T17:56:39;3.40;;;1.00;;
29814;SDS011;16708;50.426;7.664;2022-07-06T18:01:32;4.10;;;1.00;;
29814;SDS011;16708;50.426;7.664;2022-07-06T18:06:26;3.70;;;0.80;;
29814;SDS011;16708;50.426;7.664;2022-07-06T18:11:21;2.70;;;0.90;;
29814;SDS011;16708;50.426;7.664;2022-07-06T18:16:14;5.50;;;0.90;;
29814;SDS011;16708;50.426;7.664;2022-07-06T18:21:09;1.00;;;0.70;;
29814;SDS011;16708;50.426;7.664;2022-07-06T18:26:03;3.50;;;0.90;;
29814;SDS011;16708;50.426;7.664;2022-07-06T18:30:57;2.00;;;0.90;;
29814;SDS011;16708;50.426;7.664;2022-07-06T18:35:51;0.90;;;0.60;;
29814;SDS011;16708;50.426;7.664;2022-07-06T18:40:46;2.20;;;0.70;;
29814;SDS011;16708;50.426;7.664;2022-07-06T18:45:40;2.70;;;0.70;;
29814;SDS011;16708;50.426;7.664;2022-07-06T18:50:35;3.20;;;0.60;;
29814;SDS011;16708;50.426;7.664;2022-07-06T18:55:29;2.10;;;0.60;;
29814;SDS011;16708;50.426;7.664;2022-07-06T19:00:23;4.00;;;0.60;;
29814;SDS011;16708;50.426;7.664;2022-07-06T19:05:17;2.90;;;0.70;;
29814;SDS011;16708;50.426;7.664;2022-07-06T19:10:12;3.00;;;0.80;;
29814;SDS011;16708;50.426;7.664;2022-07-06T19:15:06;1.20;;;0.60;;
29814;SDS011;16708;50.426;7.664;2022-07-06T19:20:01;2.40;;;0.70;;
29814;SDS011;16708;50.426;7.664;2022-07-06T19:24:55;2.90;;;0.70;;
29814;SDS011;16708;50.426;7.664;2022-07-06T19:29:49;2.60;;;0.90;;
29814;SDS011;16708;50.426;7.664;2022-07-06T19:34:44;8.60;;;1.10;;
29814;SDS011;16708;50.426;7.664;2022-07-06T19:39:39;4.40;;;1.00;;
29814;SDS011;16708;50.426;7.664;2022-07-06T19:44:33;5.10;;;0.90;;
29814;SDS011;16708;50.426;7.664;2022-07-06T19:49:28;4.50;;;0.80;;
29814;SDS011;16708;50.426;7.664;2022-07-06T19:54:23;4.30;;;0.80;;
29814;SDS011;16708;50.426;7.664;2022-07-06T19:59:16;5.00;;;0.80;;
29814;SDS011;16708;50.426;7.664;2022-07-06T20:04:11;2.10;;;0.70;;
29814;SDS011;16708;50.426;7.664;2022-07-06T20:09:06;2.90;;;1.50;;
29814;SDS011;16708;50.426;7.664;2022-07-06T20:14:00;4.60;;;0.90;;
29814;SDS011;16708;50.426;7.664;2022-07-06T20:18:54;2.20;;;1.00;;
29814;SDS011;16708;50.426;7.664;2022-07-06T20:23:50;2.90;;;1.10;;
29814;SDS011;16708;50.426;7.664;2022-07-06T20:28:43;2.30;;;0.70;;
29814;SDS011;16708;50.426;7.664;2022-07-06T20:33:38;3.60;;;1.00;;
29814;SDS011;16708;50.426;7.664;2022-07-06T20:38:32;2.40;;;0.90;;
29814;SDS011;16708;50.426;7.664;2022-07-06T20:43:27;3.60;;;0.80;;
29814;SDS011;16708;50.426;7.664;2022-07-06T20:48:21;2.30;;;1.00;;
29814;SDS011;16708;50.426;7.664;2022-07-06T20:53:15;3.60;;;1.40;;
29814;SDS011;16708;50.426;7.664;2022-07-06T20:58:09;4.50;;;0.90;;
29814;SDS011;16708;50.426;7.664;2022-07-06T21:03:04;1.60;;;0.80;;
29814;SDS011;16708;50.426;7.664;2022-07-06T21:07:59;4.10;;;1.00;;
29814;SDS011;16708;50.426;7.664;2022-07-06T21:12:53;3.90;;;1.00;;
29814;SDS011;16708;50.426;7.664;2022-07-06T21:17:48;1.70;;;1.00;;
29814;SDS011;16708;50.426;7.664;2022-07-06T21:22:43;5.30;;;1.10;;
29814;SDS011;16708;50.426;7.664;2022-07-06T21:27:38;5.40;;;1.20;;
29814;SDS011;16708;50.426;7.664;2022-07-06T21:32:33;3.70;;;1.30;;
29814;SDS011;16708;50.426;7.664;2022-07-06T21:37:27;2.30;;;1.10;;
29814;SDS011;16708;50.426;7.664;2022-07-06T21:42:21;4.00;;;1.10;;
29814;SDS011;16708;50.426;7.664;2022-07-06T21:47:16;2.70;;;1.30;;
29814;SDS011;16708;50.426;7.664;2022-07-06T21:52:11;4.50;;;1.20;;
29814;SDS011;16708;50.426;7.664;2022-07-06T21:57:05;4.10;;;1.00;;
29814;SDS011;16708;50.426;7.664;2022-07-06T22:01:59;1.90;;;1.00;;
29814;SDS011;16708;50.426;7.664;2022-07-06T22:06:54;2.30;;;1.10;;
29814;SDS011;16708;50.426;7.664;2022-07-06T22:11:48;1.90;;;1.00;;
29814;SDS011;16708;50.426;7.664;2022-07-06T22:16:42;2.80;;;0.90;;
29814;SDS011;16708;50.426;7.664;2022-07-06T22:21:37;3.00;;;1.00;;
29814;SDS011;16708;50.426;7.664;2022-07-06T22:26:32;3.50;;;1.10;;
29814;SDS011;16708;50.426;7.664;2022-07-06T22:31:27;2.80;;;1.10;;
29814;SDS011;16708;50.426;7.664;2022-07-06T22:36:22;4.10;;;1.20;;
29814;SDS011;16708;50.426;7.664;2022-07-06T22:41:16;3.40;;;1.10;;
29814;SDS011;16708;50.426;7.664;2022-07-06T22:46:10;3.00;;;1.00;;
29814;SDS011;16708;50.426;7.664;2022-07-06T22:51:04;3.00;;;1.10;;
29814;SDS011;16708;50.426;7.664;2022-07-06T22:55:59;2.20;;;1.00;;
29814;SDS011;16708;50.426;7.664;2022-07-06T23:00:54;1.20;;;1.10;;
29814;SDS011;16708;50.426;7.664;2022-07-06T23:05:46;1.90;;;1.20;;
29814;SDS011;16708;50.426;7.664;2022-07-06T23:10:41;1.60;;;1.00;;
29814;SDS011;16708;50.426;7.664;2022-07-06T23:15:36;2.80;;;1.10;;
29814;SDS011;16708;50.426;7.664;2022-07-06T23:20:30;4.50;;;1.10;;
29814;SDS011;16708;50.426;7.664;2022-07-06T23:25:24;3.50;;;1.10;;
29814;SDS011;16708;50.426;7.664;2022-07-06T23:30:19;3.70;;;1.30;;
29814;SDS011;16708;50.426;7.664;2022-07-06T23:35:14;5.40;;;1.20;;
29814;SDS011;16708;50.426;7.664;2022-07-06T23:40:09;3.20;;;1.20;;
29814;SDS011;16708;50.426;7.664;2022-07-06T23:45:04;3.20;;;1.10;;
29814;SDS011;16708;50.426;7.664;2022-07-06T23:49:59;3.90;;;1.20;;
29814;SDS011;16708;50.426;7.664;2022-07-06T23:54:53;2.30;;;1.10;;
29814;SDS011;16708;50.426;7.664;2022-07-06T23:59:47;4.50;;;1.10;;
